Smethwick, United Kingdom
Current Conditions -  °F | °C
As of 11:50 PM on Wednesday 22 Oct 2014 (Local Time) from EGBB Reporting Station
Broken Clouds Broken Clouds  
Wind Chill: 11°   Ceiling: 2800
Heat Index: 11°   Visibility: 6mi
Dew Point:   Wind: 6mph
Humidity: 82%   Direction: 210°SSW
Pressure: 30.15"   Gusts: NA
Location:  52.49°N, 1.97°W
Report Text: EGBB 222250Z 21005KT 170V240 9999 BKN028 11/08 Q1021
Loading
Personal Weather Stations






























Interactive Weather Map
Tropical Storm Tracking
New forecast layout! Learn more

10-Day Weather Forecast

Advertisements
Track Severe Weather on mobile